createdAt,value
2022-12-31T00:01:51.816Z,70.88
2022-12-31T00:04:18.686Z,69.78
2022-12-31T00:06:46.289Z,70.61
2022-12-31T00:09:13.360Z,70.95
2022-12-31T00:11:40.377Z,70.77
2022-12-31T00:14:07.753Z,70.88
2022-12-31T00:16:37.870Z,71.98
2022-12-31T00:19:06.337Z,71.43
2022-12-31T00:21:34.098Z,71.90
2022-12-31T00:24:02.361Z,72.67
2022-12-31T00:26:31.827Z,72.68
2022-12-31T00:29:00.627Z,72.33
2022-12-31T00:31:27.427Z,73.06
2022-12-31T00:33:54.583Z,72.51
2022-12-31T00:36:23.888Z,72.66
2022-12-31T00:38:52.616Z,73.11
2022-12-31T00:41:21.203Z,74.64
2022-12-31T00:43:48.605Z,73.95
2022-12-31T00:46:15.956Z,73.88
2022-12-31T00:48:43.634Z,72.50
2022-12-31T00:51:13.425Z,73.88
2022-12-31T00:53:40.409Z,72.85
2022-12-31T00:56:13.318Z,71.98
2022-12-31T00:58:40.572Z,71.34
2022-12-31T01:01:16.571Z,71.40
2022-12-31T01:03:44.157Z,71.92
2022-12-31T01:06:11.217Z,71.83
2022-12-31T01:08:38.136Z,71.97
2022-12-31T01:11:22.763Z,72.15
2022-12-31T01:13:57.374Z,72.09
2022-12-31T01:16:32.649Z,71.98
2022-12-31T01:19:07.005Z,71.53
2022-12-31T01:21:36.018Z,71.91
2022-12-31T01:24:02.830Z,71.36
2022-12-31T01:26:30.132Z,71.95
2022-12-31T01:28:57.046Z,71.22
2022-12-31T01:31:24.713Z,70.83
2022-12-31T01:33:52.593Z,71.14
2022-12-31T01:36:26.279Z,71.65
2022-12-31T01:38:55.671Z,71.55
2022-12-31T01:41:33.839Z,71.06
2022-12-31T01:44:02.712Z,71.25
2022-12-31T01:46:29.631Z,70.80
2022-12-31T01:49:00.317Z,69.95
2022-12-31T01:51:31.713Z,70.97
2022-12-31T01:54:00.464Z,70.63
2022-12-31T01:56:27.450Z,71.27
2022-12-31T01:58:57.429Z,72.14
2022-12-31T02:01:31.236Z,73.36
2022-12-31T02:04:04.012Z,71.53
2022-12-31T02:06:39.512Z,70.63
2022-12-31T02:09:07.491Z,70.46
2022-12-31T02:11:37.914Z,71.58
2022-12-31T02:14:09.462Z,70.82
2022-12-31T02:16:50.805Z,70.43
2022-12-31T02:19:45.239Z,69.89
2022-12-31T02:22:43.167Z,70.92
2022-12-31T02:25:20.638Z,70.71
2022-12-31T02:28:09.011Z,70.80
2022-12-31T02:30:37.475Z,70.61
2022-12-31T02:33:25.647Z,70.63
2022-12-31T02:36:01.245Z,71.36
2022-12-31T02:38:32.754Z,71.16
2022-12-31T02:41:00.862Z,70.36
2022-12-31T02:43:28.086Z,70.11
2022-12-31T02:46:06.166Z,70.75
2022-12-31T02:49:02.435Z,70.97
2022-12-31T02:51:46.787Z,71.91
2022-12-31T02:54:32.079Z,71.29
2022-12-31T02:57:20.540Z,70.93
2022-12-31T03:00:17.799Z,71.17
2022-12-31T03:02:47.263Z,71.25
2022-12-31T03:05:15.936Z,71.55
2022-12-31T03:07:44.109Z,70.70
2022-12-31T03:10:11.025Z,70.80
2022-12-31T03:12:46.827Z,69.26
2022-12-31T03:15:22.627Z,70.52
2022-12-31T03:18:09.712Z,71.65
2022-12-31T03:21:00.851Z,70.63
2022-12-31T03:23:27.647Z,72.35
2022-12-31T03:25:56.513Z,72.16
2022-12-31T03:28:26.509Z,73.04
2022-12-31T03:30:59.609Z,72.61
2022-12-31T03:33:31.924Z,71.77
2022-12-31T03:35:58.772Z,71.37
2022-12-31T03:38:25.660Z,70.63
2022-12-31T03:40:53.339Z,71.77
2022-12-31T03:43:20.686Z,71.38
2022-12-31T03:45:52.489Z,71.60
2022-12-31T03:48:21.070Z,71.37
2022-12-31T03:50:48.215Z,72.79
2022-12-31T03:53:15.539Z,73.14
2022-12-31T03:55:42.414Z,72.51
2022-12-31T03:58:09.354Z,73.43
2022-12-31T04:00:36.483Z,73.42
2022-12-31T04:03:03.344Z,72.62
2022-12-31T04:05:30.213Z,71.91
2022-12-31T04:07:57.038Z,72.14
2022-12-31T04:10:23.937Z,71.91
2022-12-31T04:12:51.082Z,72.30
2022-12-31T04:15:20.611Z,72.28
2022-12-31T04:17:48.561Z,72.58
2022-12-31T04:20:16.466Z,71.85
2022-12-31T04:22:44.379Z,73.54
2022-12-31T04:25:11.606Z,72.96
2022-12-31T04:27:43.897Z,73.01
2022-12-31T04:30:12.376Z,72.47
2022-12-31T04:32:39.434Z,73.25
2022-12-31T04:35:07.536Z,72.45
2022-12-31T04:37:34.761Z,73.37
2022-12-31T04:40:05.840Z,73.86
2022-12-31T04:42:34.315Z,74.05
2022-12-31T04:45:01.184Z,74.69
2022-12-31T04:47:28.093Z,73.16
2022-12-31T04:49:54.923Z,75.56
2022-12-31T04:52:22.477Z,76.20
2022-12-31T04:54:49.475Z,75.83
2022-12-31T04:57:16.431Z,76.01
2022-12-31T04:59:43.459Z,74.49
2022-12-31T05:02:10.531Z,75.47
2022-12-31T05:04:37.488Z,74.57
2022-12-31T05:07:04.333Z,73.97
2022-12-31T05:09:31.283Z,74.18
2022-12-31T05:11:58.270Z,74.51
2022-12-31T05:14:25.802Z,73.48
2022-12-31T05:16:53.654Z,73.54
2022-12-31T05:19:20.656Z,73.92
2022-12-31T05:22:07.471Z,73.52
2022-12-31T05:24:34.314Z,73.22
2022-12-31T05:27:01.224Z,73.59
2022-12-31T05:29:28.038Z,73.07
2022-12-31T05:31:55.012Z,73.29
2022-12-31T05:34:21.816Z,72.86
2022-12-31T05:36:48.623Z,73.11
2022-12-31T05:39:15.465Z,72.70
2022-12-31T05:41:42.312Z,72.42
2022-12-31T05:44:11.072Z,72.43
2022-12-31T05:46:37.927Z,73.49
2022-12-31T05:49:05.072Z,73.20
2022-12-31T05:51:31.933Z,73.62
2022-12-31T05:53:58.807Z,73.11
2022-12-31T05:56:25.705Z,72.68
2022-12-31T05:58:52.522Z,73.47
2022-12-31T06:01:19.371Z,74.60
2022-12-31T06:03:46.795Z,74.48
2022-12-31T06:06:14.022Z,73.97
2022-12-31T06:08:40.908Z,73.47
2022-12-31T06:11:08.099Z,72.97
2022-12-31T06:13:34.887Z,74.46
2022-12-31T06:16:09.739Z,74.25
2022-12-31T06:18:37.509Z,73.65
2022-12-31T06:21:04.658Z,73.33
2022-12-31T06:23:31.586Z,72.58
2022-12-31T06:26:05.479Z,72.35
2022-12-31T06:28:32.745Z,72.62
2022-12-31T06:31:00.898Z,73.40
2022-12-31T06:33:27.977Z,72.91
2022-12-31T06:36:05.871Z,67.91
2022-12-31T06:38:34.391Z,66.02
2022-12-31T06:41:05.343Z,64.20
2022-12-31T06:43:32.413Z,62.20
2022-12-31T06:46:07.746Z,60.56
2022-12-31T06:48:34.938Z,60.97
2022-12-31T06:51:10.613Z,62.00
2022-12-31T06:53:40.466Z,64.11
2022-12-31T06:56:08.620Z,66.35
2022-12-31T06:58:36.027Z,68.32
2022-12-31T07:01:25.758Z,69.60
2022-12-31T07:04:38.480Z,70.59
2022-12-31T07:07:26.441Z,70.76
2022-12-31T07:10:00.207Z,71.14
2022-12-31T07:12:51.754Z,72.07
2022-12-31T07:15:48.058Z,71.45
2022-12-31T07:18:42.055Z,70.29
2022-12-31T07:21:16.073Z,68.63
2022-12-31T07:23:43.467Z,68.18
2022-12-31T07:26:30.421Z,68.64
2022-12-31T07:29:18.569Z,68.04
2022-12-31T07:32:02.367Z,65.28
2022-12-31T07:34:55.351Z,59.07
2022-12-31T07:37:27.983Z,57.58
2022-12-31T07:39:57.393Z,55.03
2022-12-31T07:42:52.456Z,54.71
2022-12-31T07:45:19.249Z,54.29
2022-12-31T07:47:46.401Z,54.62
2022-12-31T07:50:18.420Z,53.90
2022-12-31T07:52:46.610Z,53.87
2022-12-31T07:55:13.441Z,54.26
2022-12-31T07:58:15.476Z,54.33
2022-12-31T08:00:42.577Z,54.11
2022-12-31T08:03:15.495Z,53.74
2022-12-31T08:06:11.077Z,53.17
2022-12-31T08:08:51.493Z,53.59
2022-12-31T08:11:47.335Z,53.22
2022-12-31T08:14:15.459Z,53.14
2022-12-31T08:16:42.758Z,52.91
2022-12-31T08:19:25.700Z,52.16
2022-12-31T08:22:06.720Z,51.56
2022-12-31T08:24:58.802Z,52.61
2022-12-31T08:28:02.959Z,52.94
2022-12-31T08:30:52.343Z,52.63
2022-12-31T08:33:37.072Z,52.65
2022-12-31T08:36:39.078Z,51.94
2022-12-31T08:39:24.138Z,51.82
2022-12-31T08:41:55.138Z,52.30
2022-12-31T08:44:44.218Z,51.62
2022-12-31T08:47:16.971Z,52.35
2022-12-31T08:49:44.059Z,52.51
2022-12-31T08:52:16.341Z,53.25
2022-12-31T08:54:43.531Z,53.11
2022-12-31T08:57:28.770Z,53.90
2022-12-31T09:00:11.975Z,53.58
2022-12-31T09:03:08.069Z,54.28
2022-12-31T09:05:58.875Z,54.03
2022-12-31T09:08:53.009Z,53.31
2022-12-31T09:11:32.839Z,52.24
2022-12-31T09:14:17.634Z,50.58
2022-12-31T09:16:52.514Z,51.69
2022-12-31T09:19:19.635Z,51.86
2022-12-31T09:21:46.804Z,52.04
2022-12-31T09:24:15.569Z,52.58
2022-12-31T09:26:58.141Z,51.20
2022-12-31T09:29:30.821Z,50.68
2022-12-31T09:32:36.324Z,50.90
2022-12-31T09:35:15.716Z,52.01
2022-12-31T09:37:51.006Z,51.03
2022-12-31T09:40:42.845Z,51.15
2022-12-31T09:43:42.696Z,50.91
2022-12-31T09:46:27.338Z,50.22
2022-12-31T09:49:21.898Z,50.84
2022-12-31T09:52:00.242Z,50.42
2022-12-31T09:54:30.154Z,50.85
2022-12-31T09:57:04.684Z,50.10
2022-12-31T09:59:44.140Z,49.93
2022-12-31T10:02:33.057Z,49.55
2022-12-31T10:05:25.636Z,50.29
2022-12-31T10:08:12.839Z,50.77
2022-12-31T10:10:53.752Z,50.33
2022-12-31T10:13:41.025Z,50.89
2022-12-31T10:16:18.819Z,51.29
2022-12-31T10:19:13.360Z,49.92
2022-12-31T10:22:14.451Z,50.06
2022-12-31T10:24:44.186Z,50.38
2022-12-31T10:27:32.458Z,48.81
2022-12-31T10:30:17.679Z,49.42
2022-12-31T10:32:44.669Z,49.35
2022-12-31T10:35:21.119Z,49.45
2022-12-31T10:38:04.538Z,49.42
2022-12-31T10:40:58.258Z,49.53
2022-12-31T10:43:50.489Z,49.52
2022-12-31T10:46:56.773Z,50.28
2022-12-31T10:49:54.564Z,53.23
2022-12-31T10:52:27.110Z,54.63
2022-12-31T10:55:13.209Z,54.85
2022-12-31T10:57:51.662Z,53.71
2022-12-31T11:00:21.045Z,53.44
2022-12-31T11:03:02.077Z,52.21
2022-12-31T11:06:06.023Z,52.33
2022-12-31T11:09:19.342Z,55.28
2022-12-31T11:12:10.799Z,54.46
2022-12-31T11:15:13.076Z,51.45
2022-12-31T11:18:13.896Z,51.71
2022-12-31T11:20:58.108Z,50.00
2022-12-31T11:24:13.281Z,50.84
2022-12-31T11:27:01.612Z,50.74
2022-12-31T11:29:49.244Z,50.08
2022-12-31T11:32:53.786Z,51.09
2022-12-31T11:35:31.497Z,50.51
2022-12-31T11:38:49.274Z,50.22
2022-12-31T11:41:39.761Z,49.34
2022-12-31T11:44:24.908Z,48.25
2022-12-31T11:46:54.709Z,47.89
2022-12-31T11:49:52.253Z,48.45
2022-12-31T11:52:43.662Z,48.82
2022-12-31T11:55:21.353Z,48.80
2022-12-31T11:57:52.378Z,47.92
2022-12-31T12:00:20.893Z,48.05
2022-12-31T12:02:54.988Z,47.99
2022-12-31T12:05:26.278Z,46.78
2022-12-31T12:07:54.368Z,47.35
2022-12-31T12:10:44.714Z,47.82
2022-12-31T12:13:26.841Z,48.74
2022-12-31T12:15:59.577Z,47.84
2022-12-31T12:18:33.746Z,48.77
2022-12-31T12:21:10.788Z,49.24
2022-12-31T12:23:38.943Z,48.56
2022-12-31T12:26:07.399Z,47.81
2022-12-31T12:28:46.048Z,48.44
2022-12-31T12:31:22.533Z,47.98
2022-12-31T12:33:52.173Z,47.35
2022-12-31T12:36:21.002Z,47.60
2022-12-31T12:38:48.288Z,46.86
2022-12-31T12:41:25.456Z,47.34
2022-12-31T12:44:14.801Z,46.38
2022-12-31T12:46:48.692Z,46.81
2022-12-31T12:49:40.491Z,46.58
2022-12-31T12:52:24.119Z,46.35
2022-12-31T12:55:06.173Z,46.29
2022-12-31T12:57:45.519Z,46.35
2022-12-31T13:00:17.612Z,45.30
2022-12-31T13:03:18.441Z,44.48
2022-12-31T13:05:57.276Z,36.38
2022-12-31T13:08:27.187Z,28.23
2022-12-31T13:11:06.391Z,24.18
2022-12-31T13:13:45.378Z,23.40
2022-12-31T13:16:22.920Z,24.01
2022-12-31T13:19:05.042Z,23.25
2022-12-31T13:22:16.520Z,28.29
2022-12-31T13:25:02.563Z,34.62
2022-12-31T13:27:43.924Z,38.28
2022-12-31T13:30:18.428Z,40.12
2022-12-31T13:32:53.180Z,40.57
2022-12-31T13:35:27.198Z,42.78
2022-12-31T13:38:05.627Z,43.18
2022-12-31T13:41:21.359Z,43.89
2022-12-31T13:44:04.833Z,45.00
2022-12-31T13:46:42.831Z,45.37
2022-12-31T13:49:19.199Z,45.72
2022-12-31T13:51:52.628Z,47.09
2022-12-31T13:54:51.459Z,48.70
2022-12-31T13:57:48.934Z,48.66
2022-12-31T14:00:21.701Z,48.89
2022-12-31T14:03:24.055Z,48.91
2022-12-31T14:06:32.605Z,49.09
2022-12-31T14:08:59.745Z,49.53
2022-12-31T14:11:53.301Z,50.23
2022-12-31T14:14:31.509Z,50.02
2022-12-31T14:17:04.219Z,49.96
2022-12-31T14:20:04.889Z,50.67
2022-12-31T14:22:56.935Z,52.65
2022-12-31T14:25:27.199Z,53.42
2022-12-31T14:27:57.075Z,53.83
2022-12-31T14:30:31.017Z,54.25
2022-12-31T14:33:33.254Z,54.82
2022-12-31T14:36:10.363Z,55.08
2022-12-31T14:38:56.404Z,56.55
2022-12-31T14:41:35.011Z,56.96
2022-12-31T14:44:32.943Z,56.76
2022-12-31T14:47:13.713Z,57.95
2022-12-31T14:49:49.973Z,58.18
2022-12-31T14:52:26.678Z,58.21
2022-12-31T14:55:03.959Z,58.96
2022-12-31T14:58:01.729Z,58.61
2022-12-31T15:00:40.197Z,59.26
2022-12-31T15:03:24.416Z,59.45
2022-12-31T15:06:06.613Z,59.75
2022-12-31T15:08:49.373Z,60.45
2022-12-31T15:11:22.931Z,60.82
2022-12-31T15:13:56.185Z,60.79
2022-12-31T15:16:44.845Z,60.91
2022-12-31T15:19:43.530Z,61.46
2022-12-31T15:22:48.467Z,61.74
2022-12-31T15:25:38.418Z,61.69
2022-12-31T15:28:23.755Z,61.62
2022-12-31T15:30:51.700Z,62.93
2022-12-31T15:33:29.684Z,62.76
2022-12-31T15:35:57.857Z,62.73
2022-12-31T15:38:32.749Z,62.19
2022-12-31T15:41:00.570Z,63.04
2022-12-31T15:43:50.870Z,62.20
2022-12-31T15:46:25.728Z,62.60
2022-12-31T15:49:10.349Z,63.25
2022-12-31T15:51:49.404Z,62.71
2022-12-31T15:54:47.915Z,62.35
2022-12-31T15:57:31.498Z,62.61
2022-12-31T16:00:00.216Z,63.08
2022-12-31T16:02:29.075Z,64.33
2022-12-31T16:04:56.341Z,62.91
2022-12-31T16:07:26.482Z,64.15
2022-12-31T16:09:57.269Z,62.58
2022-12-31T16:12:32.713Z,62.53
2022-12-31T16:15:02.167Z,62.74
2022-12-31T16:17:36.975Z,62.31
2022-12-31T16:20:23.395Z,63.46
2022-12-31T16:22:53.493Z,63.76
2022-12-31T16:25:36.561Z,62.73
2022-12-31T16:28:03.981Z,63.56
2022-12-31T16:30:35.817Z,62.63
2022-12-31T16:33:05.625Z,63.50
2022-12-31T16:35:35.072Z,63.46
2022-12-31T16:38:10.742Z,63.85
2022-12-31T16:40:38.659Z,64.51
2022-12-31T16:43:29.697Z,63.17
2022-12-31T16:45:59.223Z,64.19
2022-12-31T16:48:26.745Z,63.93
2022-12-31T16:50:55.946Z,64.04
2022-12-31T16:53:26.265Z,64.30
2022-12-31T16:56:01.814Z,63.25
2022-12-31T16:58:33.585Z,62.17
2022-12-31T17:01:16.193Z,62.88
2022-12-31T17:03:46.871Z,64.18
2022-12-31T17:06:19.053Z,62.19
2022-12-31T17:08:49.583Z,62.17
2022-12-31T17:11:24.025Z,63.10
2022-12-31T17:14:05.893Z,62.93
2022-12-31T17:16:35.584Z,63.15
2022-12-31T17:19:03.487Z,62.65
2022-12-31T17:21:32.543Z,63.27
2022-12-31T17:24:06.027Z,64.54
2022-12-31T17:26:38.408Z,64.66
2022-12-31T17:29:06.100Z,64.42
2022-12-31T17:31:38.585Z,64.43
2022-12-31T17:34:14.457Z,64.76
2022-12-31T17:36:54.637Z,65.17
2022-12-31T17:39:23.440Z,65.74
2022-12-31T17:41:52.792Z,66.66
2022-12-31T17:44:29.416Z,66.72
2022-12-31T17:46:56.585Z,66.27
2022-12-31T17:49:29.652Z,67.09
2022-12-31T17:51:56.561Z,66.83
2022-12-31T17:54:23.623Z,66.28
2022-12-31T17:56:51.823Z,65.64
2022-12-31T17:59:22.735Z,66.89
2022-12-31T18:01:50.136Z,65.32
2022-12-31T18:04:19.252Z,66.83
2022-12-31T18:06:46.124Z,65.94
2022-12-31T18:09:13.025Z,65.99
2022-12-31T18:11:40.917Z,66.58
2022-12-31T18:14:07.926Z,66.67
2022-12-31T18:16:34.923Z,66.53
2022-12-31T18:19:02.048Z,66.23
2022-12-31T18:21:34.631Z,65.99
2022-12-31T18:26:32.753Z,66.22
2022-12-31T18:29:10.908Z,66.49
2022-12-31T18:31:37.843Z,67.58
2022-12-31T18:34:04.763Z,68.30
2022-12-31T18:36:31.550Z,68.09
2022-12-31T18:38:58.367Z,67.10
2022-12-31T18:41:33.236Z,67.51
2022-12-31T18:44:00.068Z,66.52
2022-12-31T18:46:27.836Z,66.42
2022-12-31T18:48:54.700Z,66.25
2022-12-31T18:51:31.405Z,67.12
2022-12-31T18:54:01.149Z,66.33
2022-12-31T18:56:28.501Z,66.69
2022-12-31T18:58:55.379Z,67.05
2022-12-31T19:01:32.932Z,66.39
2022-12-31T19:04:27.024Z,66.40
2022-12-31T19:06:55.420Z,66.93
2022-12-31T19:12:13.651Z,67.21
2022-12-31T19:14:40.576Z,67.00
2022-12-31T19:19:34.908Z,66.96
2022-12-31T19:22:02.875Z,65.96
2022-12-31T19:24:30.245Z,67.49
2022-12-31T19:26:57.235Z,67.68
2022-12-31T19:29:26.426Z,66.81
2022-12-31T19:31:53.986Z,68.42
2022-12-31T19:34:21.315Z,68.06
2022-12-31T19:36:48.120Z,68.45
2022-12-31T19:39:18.278Z,68.00
2022-12-31T19:41:46.142Z,66.54
2022-12-31T19:44:17.897Z,66.59
2022-12-31T19:46:46.377Z,67.04
2022-12-31T19:49:14.389Z,66.00
2022-12-31T19:51:41.933Z,67.55
2022-12-31T19:54:09.047Z,66.40
2022-12-31T19:56:36.082Z,66.97
2022-12-31T19:59:08.360Z,66.66
2022-12-31T20:01:35.511Z,67.63
2022-12-31T20:04:02.446Z,68.63
2022-12-31T20:06:29.353Z,68.33
2022-12-31T20:08:56.259Z,68.50
2022-12-31T20:11:24.861Z,68.59
2022-12-31T20:13:53.701Z,68.16
2022-12-31T20:16:23.507Z,68.51
2022-12-31T20:18:50.861Z,68.44
2022-12-31T20:21:20.982Z,67.66
2022-12-31T20:23:49.326Z,68.26
2022-12-31T20:26:16.943Z,67.37
2022-12-31T20:28:43.894Z,67.65
2022-12-31T20:31:13.516Z,68.54
2022-12-31T20:33:41.000Z,68.26
2022-12-31T20:36:10.794Z,67.27
2022-12-31T20:38:38.137Z,66.49
2022-12-31T20:41:07.488Z,68.94
2022-12-31T20:43:35.198Z,69.32
2022-12-31T20:46:15.699Z,68.32
2022-12-31T20:48:44.600Z,67.88
2022-12-31T20:51:13.024Z,68.79
2022-12-31T20:53:40.229Z,68.35
2022-12-31T20:56:08.654Z,69.70
2022-12-31T20:58:35.959Z,70.18
2022-12-31T21:01:06.522Z,69.60
2022-12-31T21:06:22.992Z,67.49
2022-12-31T21:08:49.819Z,67.55
2022-12-31T21:11:35.367Z,68.25
2022-12-31T21:14:02.760Z,69.10
2022-12-31T21:16:29.933Z,69.13
2022-12-31T21:18:56.726Z,69.10
2022-12-31T21:21:24.089Z,69.41
2022-12-31T21:23:51.013Z,69.39
2022-12-31T21:26:17.936Z,68.99
2022-12-31T21:28:45.514Z,69.29
2022-12-31T21:31:14.322Z,68.66
2022-12-31T21:33:45.855Z,68.79
2022-12-31T21:36:13.696Z,68.93
2022-12-31T21:38:40.825Z,69.03
2022-12-31T21:41:09.384Z,68.61
2022-12-31T21:43:36.245Z,66.65
2022-12-31T21:46:05.169Z,67.10
2022-12-31T21:48:32.139Z,66.64
2022-12-31T21:51:12.913Z,67.22
2022-12-31T21:53:40.355Z,68.47
2022-12-31T21:56:08.665Z,68.76
2022-12-31T21:58:37.240Z,68.79
2022-12-31T22:01:23.196Z,68.35
2022-12-31T22:03:50.545Z,68.66
2022-12-31T22:06:22.746Z,70.08
2022-12-31T22:08:51.979Z,70.72
2022-12-31T22:11:21.077Z,69.37
2022-12-31T22:13:48.498Z,69.93
2022-12-31T22:16:17.193Z,69.92
2022-12-31T22:18:44.482Z,69.35
2022-12-31T22:21:29.546Z,69.55
2022-12-31T22:23:58.780Z,69.92
2022-12-31T22:26:28.569Z,70.23
2022-12-31T22:28:59.776Z,70.41
2022-12-31T22:31:30.139Z,71.54
2022-12-31T22:33:58.545Z,69.81
2022-12-31T22:36:26.591Z,70.20
2022-12-31T22:38:58.326Z,69.66
2022-12-31T22:41:26.782Z,70.66
2022-12-31T22:44:02.594Z,70.60
2022-12-31T22:46:29.907Z,69.32
2022-12-31T22:48:58.611Z,70.36
2022-12-31T22:51:55.024Z,70.42
2022-12-31T22:54:13.942Z,70.34
2022-12-31T22:56:41.325Z,70.20
2022-12-31T22:59:08.327Z,69.19
2022-12-31T23:01:35.252Z,69.51
2022-12-31T23:04:02.306Z,68.95
2022-12-31T23:06:29.447Z,70.24
2022-12-31T23:09:14.799Z,69.71
2022-12-31T23:11:43.359Z,69.21
2022-12-31T23:14:34.795Z,69.03
2022-12-31T23:17:30.016Z,72.36
2022-12-31T23:20:18.961Z,72.15
2022-12-31T23:23:06.036Z,71.92
2022-12-31T23:25:38.399Z,71.52
2022-12-31T23:28:05.756Z,71.90
2022-12-31T23:30:33.123Z,71.87
2022-12-31T23:33:00.110Z,71.30
2022-12-31T23:35:26.971Z,70.96
2022-12-31T23:37:53.843Z,71.83
2022-12-31T23:40:21.777Z,71.55
2022-12-31T23:42:50.285Z,70.47
2022-12-31T23:45:17.314Z,71.35
2022-12-31T23:47:44.110Z,70.98
2022-12-31T23:50:10.929Z,70.47
2022-12-31T23:52:37.784Z,70.58
2022-12-31T23:55:04.994Z,71.40
2022-12-31T23:57:32.101Z,70.79
2022-12-31T23:59:59.014Z,70.90
